sensor_id;sensor_type;location;lat;lon;timestamp;pressure;altitude;pressure_sealevel;temperature;humidity
10921;BME280;5513;50.580;8.818;2023-12-04T00:01:55;99256.88;;;-0.11;100.00
10921;BME280;5513;50.580;8.818;2023-12-04T00:04:43;99243.50;;;-0.37;100.00
10921;BME280;5513;50.580;8.818;2023-12-04T00:07:29;99239.13;;;-0.35;100.00
10921;BME280;5513;50.580;8.818;2023-12-04T00:10:16;99228.44;;;-0.21;100.00
10921;BME280;5513;50.580;8.818;2023-12-04T00:13:05;99228.41;;;-0.20;100.00
10921;BME280;5513;50.580;8.818;2023-12-04T00:15:52;99231.41;;;-0.40;100.00
10921;BME280;5513;50.580;8.818;2023-12-04T00:18:38;99216.84;;;-0.50;100.00
10921;BME280;5513;50.580;8.818;2023-12-04T00:21:25;99222.22;;;-0.57;100.00
10921;BME280;5513;50.580;8.818;2023-12-04T00:24:12;99212.97;;;-0.74;100.00
10921;BME280;5513;50.580;8.818;2023-12-04T00:26:59;99205.47;;;-0.44;100.00
10921;BME280;5513;50.580;8.818;2023-12-04T00:29:47;99209.97;;;-0.52;100.00
10921;BME280;5513;50.580;8.818;2023-12-04T00:32:34;99205.88;;;-0.66;100.00
10921;BME280;5513;50.580;8.818;2023-12-04T00:35:21;99197.41;;;-0.77;100.00
10921;BME280;5513;50.580;8.818;2023-12-04T00:38:08;99197.75;;;-0.47;100.00
10921;BME280;5513;50.580;8.818;2023-12-04T00:40:55;99193.78;;;-0.67;100.00
10921;BME280;5513;50.580;8.818;2023-12-04T00:43:42;99187.00;;;-0.75;100.00
10921;BME280;5513;50.580;8.818;2023-12-04T00:46:30;99192.06;;;-0.69;100.00
10921;BME280;5513;50.580;8.818;2023-12-04T00:49:17;99183.03;;;-0.96;100.00
10921;BME280;5513;50.580;8.818;2023-12-04T00:52:04;99175.78;;;-0.80;100.00
10921;BME280;5513;50.580;8.818;2023-12-04T00:54:51;99178.47;;;-0.83;100.00
10921;BME280;5513;50.580;8.818;2023-12-04T00:57:39;99185.22;;;-0.73;100.00
10921;BME280;5513;50.580;8.818;2023-12-04T01:00:26;99180.94;;;-0.77;100.00
10921;BME280;5513;50.580;8.818;2023-12-04T01:03:14;99179.06;;;-0.69;100.00
10921;BME280;5513;50.580;8.818;2023-12-04T01:06:01;99175.72;;;-0.76;100.00
10921;BME280;5513;50.580;8.818;2023-12-04T01:08:48;99166.59;;;-0.52;100.00
10921;BME280;5513;50.580;8.818;2023-12-04T01:11:35;99164.31;;;-0.69;100.00
10921;BME280;5513;50.580;8.818;2023-12-04T01:14:22;99170.59;;;-0.80;100.00
10921;BME280;5513;50.580;8.818;2023-12-04T01:17:09;99162.97;;;-0.90;100.00
10921;BME280;5513;50.580;8.818;2023-12-04T01:19:58;99155.47;;;-0.60;100.00
10921;BME280;5513;50.580;8.818;2023-12-04T01:22:44;99162.31;;;-0.54;100.00
10921;BME280;5513;50.580;8.818;2023-12-04T01:25:31;99167.22;;;-0.84;100.00
10921;BME280;5513;50.580;8.818;2023-12-04T01:28:18;99168.81;;;-0.77;100.00
10921;BME280;5513;50.580;8.818;2023-12-04T01:31:06;99167.25;;;-0.85;100.00
10921;BME280;5513;50.580;8.818;2023-12-04T01:33:53;99163.00;;;-0.91;100.00
10921;BME280;5513;50.580;8.818;2023-12-04T01:36:41;99170.63;;;-0.82;100.00
10921;BME280;5513;50.580;8.818;2023-12-04T01:39:28;99165.22;;;-0.71;100.00
10921;BME280;5513;50.580;8.818;2023-12-04T01:42:16;99162.31;;;-1.01;100.00
10921;BME280;5513;50.580;8.818;2023-12-04T01:45:04;99155.41;;;-1.03;100.00
10921;BME280;5513;50.580;8.818;2023-12-04T01:47:53;99151.50;;;-0.79;100.00
10921;BME280;5513;50.580;8.818;2023-12-04T01:50:40;99151.72;;;-0.90;100.00
10921;BME280;5513;50.580;8.818;2023-12-04T01:53:28;99140.66;;;-1.01;100.00
10921;BME280;5513;50.580;8.818;2023-12-04T01:56:15;99145.06;;;-1.05;100.00
10921;BME280;5513;50.580;8.818;2023-12-04T01:59:04;99138.94;;;-1.02;100.00
10921;BME280;5513;50.580;8.818;2023-12-04T02:01:51;99136.56;;;-1.16;100.00
10921;BME280;5513;50.580;8.818;2023-12-04T02:04:38;99142.09;;;-1.34;100.00
10921;BME280;5513;50.580;8.818;2023-12-04T02:07:25;99129.97;;;-1.34;100.00
10921;BME280;5513;50.580;8.818;2023-12-04T02:10:13;99123.72;;;-1.24;100.00
10921;BME280;5513;50.580;8.818;2023-12-04T02:13:01;99118.69;;;-0.85;100.00
10921;BME280;5513;50.580;8.818;2023-12-04T02:15:49;99133.66;;;-0.98;100.00
10921;BME280;5513;50.580;8.818;2023-12-04T02:18:39;99118.22;;;-1.05;100.00
10921;BME280;5513;50.580;8.818;2023-12-04T02:21:26;99116.19;;;-1.39;100.00
10921;BME280;5513;50.580;8.818;2023-12-04T02:24:14;99116.06;;;-1.31;100.00
10921;BME280;5513;50.580;8.818;2023-12-04T02:27:08;99119.75;;;-1.45;100.00
10921;BME280;5513;50.580;8.818;2023-12-04T02:29:59;99119.94;;;-1.57;100.00
10921;BME280;5513;50.580;8.818;2023-12-04T02:32:47;99106.06;;;-1.56;100.00
10921;BME280;5513;50.580;8.818;2023-12-04T02:35:35;99103.19;;;-1.39;100.00
10921;BME280;5513;50.580;8.818;2023-12-04T02:38:24;99113.72;;;-1.48;100.00
10921;BME280;5513;50.580;8.818;2023-12-04T02:41:12;99108.63;;;-1.53;100.00
10921;BME280;5513;50.580;8.818;2023-12-04T02:43:59;99111.28;;;-1.57;100.00
10921;BME280;5513;50.580;8.818;2023-12-04T02:46:46;99106.31;;;-1.71;100.00
10921;BME280;5513;50.580;8.818;2023-12-04T02:49:33;99107.97;;;-1.67;100.00
10921;BME280;5513;50.580;8.818;2023-12-04T02:52:20;99102.50;;;-1.50;100.00
10921;BME280;5513;50.580;8.818;2023-12-04T02:55:08;99097.22;;;-1.44;100.00
10921;BME280;5513;50.580;8.818;2023-12-04T02:57:56;99095.66;;;-1.54;100.00
10921;BME280;5513;50.580;8.818;2023-12-04T03:00:43;99096.81;;;-1.72;100.00
10921;BME280;5513;50.580;8.818;2023-12-04T03:03:30;99088.53;;;-1.41;100.00
10921;BME280;5513;50.580;8.818;2023-12-04T03:06:17;99083.47;;;-1.51;100.00
10921;BME280;5513;50.580;8.818;2023-12-04T03:09:04;99086.16;;;-1.57;100.00
10921;BME280;5513;50.580;8.818;2023-12-04T03:11:51;99077.31;;;-1.45;100.00
10921;BME280;5513;50.580;8.818;2023-12-04T03:14:39;99076.50;;;-1.49;100.00
10921;BME280;5513;50.580;8.818;2023-12-04T03:17:26;99075.75;;;-1.55;100.00
10921;BME280;5513;50.580;8.818;2023-12-04T03:20:13;99067.31;;;-1.68;100.00
10921;BME280;5513;50.580;8.818;2023-12-04T03:23:00;99071.06;;;-1.86;100.00
10921;BME280;5513;50.580;8.818;2023-12-04T03:25:47;99065.66;;;-1.72;100.00
10921;BME280;5513;50.580;8.818;2023-12-04T03:28:34;99054.50;;;-1.79;100.00
10921;BME280;5513;50.580;8.818;2023-12-04T03:31:23;99050.81;;;-1.64;100.00
10921;BME280;5513;50.580;8.818;2023-12-04T03:34:10;99042.19;;;-1.66;100.00
10921;BME280;5513;50.580;8.818;2023-12-04T03:36:56;99050.94;;;-1.71;100.00
10921;BME280;5513;50.580;8.818;2023-12-04T03:39:43;99046.22;;;-2.00;100.00
10921;BME280;5513;50.580;8.818;2023-12-04T03:42:30;99049.28;;;-1.77;100.00
10921;BME280;5513;50.580;8.818;2023-12-04T03:45:17;99036.47;;;-1.86;100.00
10921;BME280;5513;50.580;8.818;2023-12-04T03:48:05;99040.56;;;-1.71;100.00
10921;BME280;5513;50.580;8.818;2023-12-04T03:50:52;99037.25;;;-1.81;100.00
10921;BME280;5513;50.580;8.818;2023-12-04T03:53:39;99031.00;;;-1.69;100.00
10921;BME280;5513;50.580;8.818;2023-12-04T03:56:26;99020.09;;;-1.90;100.00
10921;BME280;5513;50.580;8.818;2023-12-04T03:59:13;99028.09;;;-1.51;100.00
10921;BME280;5513;50.580;8.818;2023-12-04T04:01:59;99015.31;;;-1.62;100.00
10921;BME280;5513;50.580;8.818;2023-12-04T04:04:48;99014.59;;;-1.71;100.00
10921;BME280;5513;50.580;8.818;2023-12-04T04:07:35;99004.59;;;-1.94;100.00
10921;BME280;5513;50.580;8.818;2023-12-04T04:10:22;98999.78;;;-1.66;100.00
10921;BME280;5513;50.580;8.818;2023-12-04T04:13:09;98996.78;;;-1.91;100.00
10921;BME280;5513;50.580;8.818;2023-12-04T04:15:56;98994.81;;;-1.79;100.00
10921;BME280;5513;50.580;8.818;2023-12-04T04:18:43;98991.47;;;-1.87;100.00
10921;BME280;5513;50.580;8.818;2023-12-04T04:21:31;98985.94;;;-1.67;100.00
10921;BME280;5513;50.580;8.818;2023-12-04T04:24:18;98990.41;;;-1.74;100.00
10921;BME280;5513;50.580;8.818;2023-12-04T04:27:05;98974.94;;;-1.80;100.00
10921;BME280;5513;50.580;8.818;2023-12-04T04:29:52;98966.84;;;-1.64;100.00
10921;BME280;5513;50.580;8.818;2023-12-04T04:32:39;98977.53;;;-1.80;100.00
10921;BME280;5513;50.580;8.818;2023-12-04T04:35:26;98958.91;;;-1.55;100.00
10921;BME280;5513;50.580;8.818;2023-12-04T04:38:14;98965.63;;;-1.45;100.00
10921;BME280;5513;50.580;8.818;2023-12-04T04:41:01;98969.09;;;-1.43;100.00
10921;BME280;5513;50.580;8.818;2023-12-04T04:43:48;98974.53;;;-1.58;100.00
10921;BME280;5513;50.580;8.818;2023-12-04T04:46:34;98980.81;;;-1.70;100.00
10921;BME280;5513;50.580;8.818;2023-12-04T04:49:21;98986.19;;;-1.81;100.00
10921;BME280;5513;50.580;8.818;2023-12-04T04:52:08;98992.94;;;-2.23;100.00
10921;BME280;5513;50.580;8.818;2023-12-04T04:54:57;98996.91;;;-2.00;100.00
10921;BME280;5513;50.580;8.818;2023-12-04T04:57:44;98994.22;;;-1.93;100.00
10921;BME280;5513;50.580;8.818;2023-12-04T05:00:30;98991.38;;;-1.79;100.00
10921;BME280;5513;50.580;8.818;2023-12-04T05:03:17;98989.47;;;-1.69;100.00
10921;BME280;5513;50.580;8.818;2023-12-04T05:06:06;98992.13;;;-1.73;100.00
10921;BME280;5513;50.580;8.818;2023-12-04T05:08:53;98986.06;;;-1.73;100.00
10921;BME280;5513;50.580;8.818;2023-12-04T05:11:41;98997.91;;;-1.58;100.00
10921;BME280;5513;50.580;8.818;2023-12-04T05:14:28;98990.00;;;-2.00;100.00
10921;BME280;5513;50.580;8.818;2023-12-04T05:17:15;98992.25;;;-1.80;100.00
10921;BME280;5513;50.580;8.818;2023-12-04T05:20:02;98988.91;;;-1.87;100.00
10921;BME280;5513;50.580;8.818;2023-12-04T05:22:49;98990.41;;;-1.74;100.00
10921;BME280;5513;50.580;8.818;2023-12-04T05:25:37;98984.03;;;-1.57;100.00
10921;BME280;5513;50.580;8.818;2023-12-04T05:28:34;98981.56;;;-1.65;100.00
10921;BME280;5513;50.580;8.818;2023-12-04T05:31:21;98977.53;;;-1.80;100.00
10921;BME280;5513;50.580;8.818;2023-12-04T05:34:08;98968.66;;;-1.68;100.00
10921;BME280;5513;50.580;8.818;2023-12-04T05:36:55;98968.59;;;-1.65;100.00
10921;BME280;5513;50.580;8.818;2023-12-04T05:39:42;98957.47;;;-1.70;100.00
10921;BME280;5513;50.580;8.818;2023-12-04T05:42:29;98956.03;;;-1.88;100.00
10921;BME280;5513;50.580;8.818;2023-12-04T05:45:17;98945.53;;;-1.80;100.00
10921;BME280;5513;50.580;8.818;2023-12-04T05:48:04;98953.03;;;-1.65;100.00
10921;BME280;5513;50.580;8.818;2023-12-04T05:50:51;98946.44;;;-1.36;100.00
10921;BME280;5513;50.580;8.818;2023-12-04T05:53:38;98939.22;;;-1.67;100.00
10921;BME280;5513;50.580;8.818;2023-12-04T05:56:25;98935.78;;;-1.67;100.00
10921;BME280;5513;50.580;8.818;2023-12-04T05:59:11;98929.97;;;-1.80;100.00
10921;BME280;5513;50.580;8.818;2023-12-04T06:02:00;98930.69;;;-1.72;100.00
10921;BME280;5513;50.580;8.818;2023-12-04T06:04:46;98933.00;;;-1.58;100.00
10921;BME280;5513;50.580;8.818;2023-12-04T06:07:33;98917.84;;;-1.35;100.00
10921;BME280;5513;50.580;8.818;2023-12-04T06:10:20;98920.34;;;-1.30;100.00
10921;BME280;5513;50.580;8.818;2023-12-04T06:13:07;98909.38;;;-1.45;100.00
10921;BME280;5513;50.580;8.818;2023-12-04T06:15:54;98898.19;;;-1.48;100.00
10921;BME280;5513;50.580;8.818;2023-12-04T06:18:42;98904.94;;;-1.39;100.00
10921;BME280;5513;50.580;8.818;2023-12-04T06:21:29;98895.38;;;-1.37;100.00
10921;BME280;5513;50.580;8.818;2023-12-04T06:24:17;98902.72;;;-1.59;100.00
10921;BME280;5513;50.580;8.818;2023-12-04T06:27:04;98897.53;;;-1.59;100.00
10921;BME280;5513;50.580;8.818;2023-12-04T06:29:54;98898.50;;;-1.63;100.00
10921;BME280;5513;50.580;8.818;2023-12-04T06:32:42;98908.16;;;-1.71;100.00
10921;BME280;5513;50.580;8.818;2023-12-04T06:35:30;98900.34;;;-1.70;100.00
10921;BME280;5513;50.580;8.818;2023-12-04T06:38:19;98898.81;;;-1.37;100.00
10921;BME280;5513;50.580;8.818;2023-12-04T06:41:06;98900.34;;;-1.25;100.00
10921;BME280;5513;50.580;8.818;2023-12-04T06:43:54;98906.78;;;-1.46;100.00
10921;BME280;5513;50.580;8.818;2023-12-04T06:46:46;98906.78;;;-1.46;100.00
10921;BME280;5513;50.580;8.818;2023-12-04T06:49:34;98895.75;;;-1.57;100.00
10921;BME280;5513;50.580;8.818;2023-12-04T06:52:23;98894.19;;;-1.66;100.00
10921;BME280;5513;50.580;8.818;2023-12-04T06:55:11;98884.16;;;-1.39;100.00
10921;BME280;5513;50.580;8.818;2023-12-04T06:57:58;98880.81;;;-1.45;100.00
10921;BME280;5513;50.580;8.818;2023-12-04T07:00:45;98874.03;;;-1.52;100.00
10921;BME280;5513;50.580;8.818;2023-12-04T07:03:32;98867.34;;;-1.63;100.00
10921;BME280;5513;50.580;8.818;2023-12-04T07:06:19;98872.47;;;-1.60;100.00
10921;BME280;5513;50.580;8.818;2023-12-04T07:09:07;98871.94;;;-1.34;100.00
10921;BME280;5513;50.580;8.818;2023-12-04T07:11:54;98885.97;;;-1.43;100.00
10921;BME280;5513;50.580;8.818;2023-12-04T07:14:41;98877.63;;;-1.59;100.00
10921;BME280;5513;50.580;8.818;2023-12-04T07:17:28;98882.06;;;-1.65;100.00
10921;BME280;5513;50.580;8.818;2023-12-04T07:20:15;98874.19;;;-1.59;100.00
10921;BME280;5513;50.580;8.818;2023-12-04T07:23:02;98875.09;;;-1.62;100.00
10921;BME280;5513;50.580;8.818;2023-12-04T07:25:50;98865.72;;;-1.69;100.00
10921;BME280;5513;50.580;8.818;2023-12-04T07:28:37;98866.22;;;-1.50;100.00
10921;BME280;5513;50.580;8.818;2023-12-04T07:31:24;98874.75;;;-1.43;100.00
10921;BME280;5513;50.580;8.818;2023-12-04T07:34:12;98874.47;;;-1.75;100.00
10921;BME280;5513;50.580;8.818;2023-12-04T07:36:59;98874.09;;;-1.56;100.00
10921;BME280;5513;50.580;8.818;2023-12-04T07:39:46;98870.50;;;-1.49;100.00
10921;BME280;5513;50.580;8.818;2023-12-04T07:42:34;98867.28;;;-1.60;100.00
10921;BME280;5513;50.580;8.818;2023-12-04T07:45:21;98861.03;;;-1.52;100.00
10921;BME280;5513;50.580;8.818;2023-12-04T07:48:09;98856.59;;;-1.47;100.00
10921;BME280;5513;50.580;8.818;2023-12-04T07:50:56;98855.44;;;-1.32;100.00
10921;BME280;5513;50.580;8.818;2023-12-04T07:53:43;98848.25;;;-1.21;100.00
10921;BME280;5513;50.580;8.818;2023-12-04T07:56:30;98857.03;;;-1.25;100.00
10921;BME280;5513;50.580;8.818;2023-12-04T07:59:17;98853.34;;;-1.16;100.00
10921;BME280;5513;50.580;8.818;2023-12-04T08:02:04;98844.75;;;-1.18;100.00
10921;BME280;5513;50.580;8.818;2023-12-04T08:04:51;98833.94;;;-1.00;100.00
10921;BME280;5513;50.580;8.818;2023-12-04T08:07:38;98831.06;;;-1.26;100.00
10921;BME280;5513;50.580;8.818;2023-12-04T08:10:25;98826.31;;;-1.07;100.00
10921;BME280;5513;50.580;8.818;2023-12-04T08:13:12;98806.81;;;-0.88;100.00
10921;BME280;5513;50.580;8.818;2023-12-04T08:16:01;98810.66;;;-0.67;100.00
10921;BME280;5513;50.580;8.818;2023-12-04T08:18:47;98812.06;;;-0.21;100.00
10921;BME280;5513;50.580;8.818;2023-12-04T08:21:34;98812.91;;;-0.53;100.00
10921;BME280;5513;50.580;8.818;2023-12-04T08:24:21;98796.44;;;-0.90;100.00
10921;BME280;5513;50.580;8.818;2023-12-04T08:27:08;98790.81;;;-0.71;100.00
10921;BME280;5513;50.580;8.818;2023-12-04T08:29:55;98794.00;;;-0.60;100.00
10921;BME280;5513;50.580;8.818;2023-12-04T08:32:44;98779.75;;;-0.13;100.00
10921;BME280;5513;50.580;8.818;2023-12-04T08:35:30;98783.66;;;-0.29;100.00
10921;BME280;5513;50.580;8.818;2023-12-04T08:38:17;98787.75;;;-0.19;100.00
10921;BME280;5513;50.580;8.818;2023-12-04T08:41:04;98784.00;;;-0.10;100.00
10921;BME280;5513;50.580;8.818;2023-12-04T08:43:51;98783.25;;;-0.46;100.00
10921;BME280;5513;50.580;8.818;2023-12-04T08:46:40;98787.69;;;0.14;100.00
10921;BME280;5513;50.580;8.818;2023-12-04T08:49:28;98775.09;;;0.00;100.00
10921;BME280;5513;50.580;8.818;2023-12-04T08:52:27;98777.63;;;0.02;100.00
10921;BME280;5513;50.580;8.818;2023-12-04T08:55:14;98781.16;;;-0.01;100.00
10921;BME280;5513;50.580;8.818;2023-12-04T08:58:01;98779.41;;;-0.01;100.00
10921;BME280;5513;50.580;8.818;2023-12-04T09:00:49;98776.84;;;-0.02;100.00
10921;BME280;5513;50.580;8.818;2023-12-04T09:03:35;98773.47;;;0.25;100.00
10921;BME280;5513;50.580;8.818;2023-12-04T09:06:24;98770.81;;;0.58;100.00
10921;BME280;5513;50.580;8.818;2023-12-04T09:09:31;98774.31;;;0.55;100.00
10921;BME280;5513;50.580;8.818;2023-12-04T09:12:17;98770.59;;;0.64;100.00
10921;BME280;5513;50.580;8.818;2023-12-04T09:15:05;98755.66;;;0.41;100.00
10921;BME280;5513;50.580;8.818;2023-12-04T09:17:53;98758.44;;;0.35;100.00
10921;BME280;5513;50.580;8.818;2023-12-04T09:20:41;98752.22;;;0.41;100.00
10921;BME280;5513;50.580;8.818;2023-12-04T09:23:29;98741.13;;;0.62;100.00
10921;BME280;5513;50.580;8.818;2023-12-04T09:26:17;98726.00;;;0.45;100.00
10921;BME280;5513;50.580;8.818;2023-12-04T09:29:04;98722.22;;;0.55;100.00
10921;BME280;5513;50.580;8.818;2023-12-04T09:31:51;98714.97;;;0.65;100.00
10921;BME280;5513;50.580;8.818;2023-12-04T09:34:38;98718.34;;;0.95;100.00
10921;BME280;5513;50.580;8.818;2023-12-04T09:37:25;98734.69;;;0.74;100.00
10921;BME280;5513;50.580;8.818;2023-12-04T09:40:14;98712.22;;;0.42;100.00
10921;BME280;5513;50.580;8.818;2023-12-04T09:43:01;98713.94;;;0.43;100.00
10921;BME280;5513;50.580;8.818;2023-12-04T09:45:47;98721.53;;;0.50;100.00
10921;BME280;5513;50.580;8.818;2023-12-04T09:48:35;98718.34;;;0.41;100.00
10921;BME280;5513;50.580;8.818;2023-12-04T09:51:23;98712.53;;;0.61;100.00
10921;BME280;5513;50.580;8.818;2023-12-04T09:54:12;98711.72;;;0.59;100.00
10921;BME280;5513;50.580;8.818;2023-12-04T09:57:00;98709.59;;;0.14;100.00
10921;BME280;5513;50.580;8.818;2023-12-04T09:59:49;98697.00;;;0.56;100.00
10921;BME280;5513;50.580;8.818;2023-12-04T10:02:38;98703.94;;;0.29;100.00
10921;BME280;5513;50.580;8.818;2023-12-04T10:05:26;98711.94;;;0.23;100.00
10921;BME280;5513;50.580;8.818;2023-12-04T10:08:13;98698.53;;;0.35;100.00
10921;BME280;5513;50.580;8.818;2023-12-04T10:10:59;98691.78;;;0.30;100.00
10921;BME280;5513;50.580;8.818;2023-12-04T10:13:48;98690.94;;;0.29;100.00
10921;BME280;5513;50.580;8.818;2023-12-04T10:16:44;98672.59;;;0.32;100.00
10921;BME280;5513;50.580;8.818;2023-12-04T10:19:31;98676.66;;;0.13;100.00
10921;BME280;5513;50.580;8.818;2023-12-04T10:22:18;98667.56;;;0.26;100.00
10921;BME280;5513;50.580;8.818;2023-12-04T10:25:14;98666.94;;;0.18;100.00
10921;BME280;5513;50.580;8.818;2023-12-04T10:28:09;98659.72;;;-0.02;100.00
10921;BME280;5513;50.580;8.818;2023-12-04T10:30:58;98655.94;;;0.10;100.00
10921;BME280;5513;50.580;8.818;2023-12-04T10:33:45;98656.50;;;0.19;100.00
10921;BME280;5513;50.580;8.818;2023-12-04T10:36:35;98654.25;;;0.35;100.00
10921;BME280;5513;50.580;8.818;2023-12-04T10:39:21;98638.50;;;0.40;100.00
10921;BME280;5513;50.580;8.818;2023-12-04T10:42:08;98642.34;;;0.00;100.00
10921;BME280;5513;50.580;8.818;2023-12-04T10:44:55;98643.50;;;0.18;100.00
10921;BME280;5513;50.580;8.818;2023-12-04T10:47:45;98644.91;;;0.30;100.00
10921;BME280;5513;50.580;8.818;2023-12-04T10:50:33;98637.50;;;0.44;100.00
10921;BME280;5513;50.580;8.818;2023-12-04T10:53:21;98643.94;;;0.60;100.00
10921;BME280;5513;50.580;8.818;2023-12-04T10:56:09;98624.41;;;0.45;100.00
10921;BME280;5513;50.580;8.818;2023-12-04T10:58:57;98632.34;;;0.42;100.00
10921;BME280;5513;50.580;8.818;2023-12-04T11:01:48;98619.84;;;0.25;100.00
10921;BME280;5513;50.580;8.818;2023-12-04T11:04:39;98618.03;;;0.27;100.00
10921;BME280;5513;50.580;8.818;2023-12-04T11:07:27;98613.22;;;0.15;100.00
10921;BME280;5513;50.580;8.818;2023-12-04T11:10:41;98609.41;;;0.25;100.00
10921;BME280;5513;50.580;8.818;2023-12-04T11:13:30;98613.50;;;0.34;100.00
10921;BME280;5513;50.580;8.818;2023-12-04T11:16:22;98616.94;;;0.35;100.00
10921;BME280;5513;50.580;8.818;2023-12-04T11:19:18;98605.63;;;0.36;100.00
10921;BME280;5513;50.580;8.818;2023-12-04T11:22:09;98605.78;;;0.31;100.00
10921;BME280;5513;50.580;8.818;2023-12-04T11:24:56;98583.16;;;0.60;100.00
10921;BME280;5513;50.580;8.818;2023-12-04T11:27:45;98578.31;;;0.49;100.00
10921;BME280;5513;50.580;8.818;2023-12-04T11:30:32;98585.00;;;0.56;100.00
10921;BME280;5513;50.580;8.818;2023-12-04T11:33:20;98577.41;;;0.50;100.00
10921;BME280;5513;50.580;8.818;2023-12-04T11:36:11;98569.09;;;0.90;100.00
10921;BME280;5513;50.580;8.818;2023-12-04T11:39:01;98563.94;;;0.89;100.00
10921;BME280;5513;50.580;8.818;2023-12-04T11:41:49;98567.63;;;0.81;100.00
10921;BME280;5513;50.580;8.818;2023-12-04T11:44:36;98563.69;;;0.95;100.00
10921;BME280;5513;50.580;8.818;2023-12-04T11:47:23;98554.56;;;1.08;100.00
10921;BME280;5513;50.580;8.818;2023-12-04T11:50:10;98553.25;;;0.95;100.00
10921;BME280;5513;50.580;8.818;2023-12-04T11:52:57;98550.66;;;0.70;100.00
10921;BME280;5513;50.580;8.818;2023-12-04T11:55:47;98549.59;;;0.75;100.00
10921;BME280;5513;50.580;8.818;2023-12-04T11:58:41;98530.63;;;0.97;100.00
10921;BME280;5513;50.580;8.818;2023-12-04T12:01:28;98532.31;;;0.98;100.00
10921;BME280;5513;50.580;8.818;2023-12-04T12:04:15;98522.94;;;1.17;100.00
10921;BME280;5513;50.580;8.818;2023-12-04T12:07:04;98516.84;;;1.40;100.00
10921;BME280;5513;50.580;8.818;2023-12-04T12:09:52;98513.97;;;1.24;100.00
10921;BME280;5513;50.580;8.818;2023-12-04T12:12:40;98505.88;;;0.83;100.00
10921;BME280;5513;50.580;8.818;2023-12-04T12:15:27;98494.19;;;1.19;100.00
10921;BME280;5513;50.580;8.818;2023-12-04T12:18:14;98491.56;;;0.95;100.00
10921;BME280;5513;50.580;8.818;2023-12-04T12:21:01;98502.16;;;0.91;100.00
10921;BME280;5513;50.580;8.818;2023-12-04T12:23:48;98494.13;;;0.72;100.00
10921;BME280;5513;50.580;8.818;2023-12-04T12:26:35;98485.31;;;0.51;100.00
10921;BME280;5513;50.580;8.818;2023-12-04T12:29:23;98473.91;;;0.28;100.00
10921;BME280;5513;50.580;8.818;2023-12-04T12:32:10;98462.63;;;0.28;100.00
10921;BME280;5513;50.580;8.818;2023-12-04T12:34:57;98458.91;;;0.10;100.00
10921;BME280;5513;50.580;8.818;2023-12-04T12:37:44;98449.84;;;0.47;100.00
10921;BME280;5513;50.580;8.818;2023-12-04T12:40:31;98442.25;;;1.36;100.00
10921;BME280;5513;50.580;8.818;2023-12-04T12:43:20;98446.16;;;1.24;100.00
10921;BME280;5513;50.580;8.818;2023-12-04T12:46:10;98446.84;;;0.82;100.00
10921;BME280;5513;50.580;8.818;2023-12-04T12:48:56;98428.47;;;0.85;100.00
10921;BME280;5513;50.580;8.818;2023-12-04T12:51:44;98426.44;;;0.45;100.00
10921;BME280;5513;50.580;8.818;2023-12-04T12:54:31;98417.66;;;0.96;100.00
10921;BME280;5513;50.580;8.818;2023-12-04T12:57:19;98403.59;;;1.00;100.00
10921;BME280;5513;50.580;8.818;2023-12-04T13:00:07;98404.00;;;0.66;100.00
10921;BME280;5513;50.580;8.818;2023-12-04T13:02:55;98405.06;;;0.84;100.00
10921;BME280;5513;50.580;8.818;2023-12-04T13:05:42;98392.56;;;0.70;100.00
10921;BME280;5513;50.580;8.818;2023-12-04T13:08:29;98388.94;;;0.74;100.00
10921;BME280;5513;50.580;8.818;2023-12-04T13:11:16;98384.00;;;0.67;100.00
10921;BME280;5513;50.580;8.818;2023-12-04T13:14:03;98383.31;;;0.62;100.00
10921;BME280;5513;50.580;8.818;2023-12-04T13:16:50;98382.09;;;0.72;100.00
10921;BME280;5513;50.580;8.818;2023-12-04T13:19:38;98384.84;;;0.91;100.00
10921;BME280;5513;50.580;8.818;2023-12-04T13:22:25;98380.81;;;0.35;100.00
10921;BME280;5513;50.580;8.818;2023-12-04T13:25:13;98379.75;;;0.41;100.00
10921;BME280;5513;50.580;8.818;2023-12-04T13:28:00;98373.53;;;0.20;100.00
10921;BME280;5513;50.580;8.818;2023-12-04T13:30:47;98366.00;;;0.12;100.00
10921;BME280;5513;50.580;8.818;2023-12-04T13:33:33;98360.94;;;0.08;100.00
10921;BME280;5513;50.580;8.818;2023-12-04T13:36:22;98364.00;;;0.19;100.00
10921;BME280;5513;50.580;8.818;2023-12-04T13:39:09;98367.00;;;0.33;100.00
10921;BME280;5513;50.580;8.818;2023-12-04T13:42:02;98369.97;;;-0.03;100.00
10921;BME280;5513;50.580;8.818;2023-12-04T13:45:07;98361.91;;;0.30;100.00
10921;BME280;5513;50.580;8.818;2023-12-04T13:47:55;98364.97;;;-0.09;100.00
10921;BME280;5513;50.580;8.818;2023-12-04T13:50:42;98357.59;;;0.04;100.00
10921;BME280;5513;50.580;8.818;2023-12-04T13:53:30;98360.31;;;0.01;100.00
10921;BME280;5513;50.580;8.818;2023-12-04T13:56:17;98354.94;;;0.31;100.00
10921;BME280;5513;50.580;8.818;2023-12-04T13:59:27;98344.00;;;-0.04;100.00
10921;BME280;5513;50.580;8.818;2023-12-04T14:02:14;98341.88;;;0.07;100.00
10921;BME280;5513;50.580;8.818;2023-12-04T14:05:01;98340.88;;;0.11;100.00
10921;BME280;5513;50.580;8.818;2023-12-04T14:07:48;98340.41;;;0.00;100.00
10921;BME280;5513;50.580;8.818;2023-12-04T14:10:37;98341.28;;;-0.26;100.00
10921;BME280;5513;50.580;8.818;2023-12-04T14:13:23;98331.88;;;-0.30;100.00
10921;BME280;5513;50.580;8.818;2023-12-04T14:16:10;98326.28;;;-0.44;100.00
10921;BME280;5513;50.580;8.818;2023-12-04T14:18:57;98330.25;;;-0.08;100.00
10921;BME280;5513;50.580;8.818;2023-12-04T14:21:45;98329.63;;;-0.41;100.00
10921;BME280;5513;50.580;8.818;2023-12-04T14:24:33;98318.47;;;-0.44;100.00
10921;BME280;5513;50.580;8.818;2023-12-04T14:27:22;98327.28;;;-0.48;100.00
10921;BME280;5513;50.580;8.818;2023-12-04T14:30:10;98317.47;;;-0.40;100.00
10921;BME280;5513;50.580;8.818;2023-12-04T14:32:57;98320.84;;;-0.37;100.00
10921;BME280;5513;50.580;8.818;2023-12-04T14:35:44;98312.13;;;-0.11;100.00
10921;BME280;5513;50.580;8.818;2023-12-04T14:38:32;98326.75;;;-0.07;100.00
10921;BME280;5513;50.580;8.818;2023-12-04T14:41:20;98309.81;;;-0.18;100.00
10921;BME280;5513;50.580;8.818;2023-12-04T14:44:08;98313.34;;;-0.21;100.00
10921;BME280;5513;50.580;8.818;2023-12-04T14:46:55;98317.38;;;-0.12;100.00
10921;BME280;5513;50.580;8.818;2023-12-04T14:49:42;98314.03;;;-0.16;100.00
10921;BME280;5513;50.580;8.818;2023-12-04T14:52:28;98310.75;;;-0.21;100.00
10921;BME280;5513;50.580;8.818;2023-12-04T14:55:18;98318.28;;;-0.13;100.00